KTA weather

Karratha Airport
Karratha, Western Australia, Australia

Public forecast

Using degrees Celsius for public forecast. Weather courtesy of forecast.io.

METAR (pilot weather report)

Closest report is Barrow Island Airport, 77.3 nm (143.1 km) W. Retrieved 2017/11/19 23:00 UTC (15 minutes ago):

YBWX 192300Z AUTO 21016KT //// // ////// 24/18 Q1011

TAF (pilot weather forecast)

Closest forecast is Port Hedland International Airport, 106.1 nm (196.5 km) E. Retrieved 2017/11/19 18:36 UTC (5 hours ago):

TAF YPPD 191708Z 1918/2018 24008KT CAVOK FM200400 31014KT CAVOK FM201200 28009KT CAVOK